createdAt,value
2017-11-18T00:00:15.300Z,11.60
2017-11-18T00:02:42.966Z,10.33
2017-11-18T00:05:10.582Z,11.40
2017-11-18T00:07:38.200Z,10.53
2017-11-18T00:10:06.073Z,12.00
2017-11-18T00:12:33.692Z,10.50
2017-11-18T00:15:01.373Z,11.13
2017-11-18T00:17:29.049Z,11.73
2017-11-18T00:19:56.729Z,11.93
2017-11-18T00:22:24.404Z,14.20
2017-11-18T00:24:52.153Z,13.87
2017-11-18T00:27:19.836Z,13.20
2017-11-18T00:29:47.451Z,14.03
2017-11-18T00:32:15.120Z,15.00
2017-11-18T00:34:42.740Z,14.67
2017-11-18T00:37:10.411Z,16.23
2017-11-18T00:39:38.084Z,17.03
2017-11-18T00:42:05.765Z,16.23
2017-11-18T00:44:33.482Z,16.33
2017-11-18T00:47:01.178Z,18.73
2017-11-18T00:49:28.868Z,20.90
2017-11-18T00:51:56.490Z,18.13
2017-11-18T00:54:24.213Z,15.57
2017-11-18T00:56:51.832Z,16.10
2017-11-18T00:59:19.440Z,15.87
2017-11-18T01:01:47.189Z,17.50
2017-11-18T01:04:14.821Z,17.20
2017-11-18T01:06:42.440Z,17.50
2017-11-18T01:09:10.143Z,15.90
2017-11-18T01:11:38.524Z,15.80
2017-11-18T01:14:06.145Z,17.40
2017-11-18T01:16:33.871Z,18.37
2017-11-18T01:19:01.546Z,17.33
2017-11-18T01:21:29.220Z,17.70
2017-11-18T01:23:56.906Z,18.50
2017-11-18T01:26:24.525Z,16.27
2017-11-18T01:28:52.152Z,17.50
2017-11-18T01:31:19.820Z,15.17
2017-11-18T01:33:47.444Z,16.43
2017-11-18T01:36:15.134Z,17.50
2017-11-18T01:38:42.802Z,16.30
2017-11-18T01:41:10.514Z,16.73
2017-11-18T01:43:38.139Z,15.63
2017-11-18T01:46:05.882Z,16.80
2017-11-18T01:48:33.504Z,16.30
2017-11-18T01:51:01.185Z,14.13
2017-11-18T01:53:28.845Z,14.37
2017-11-18T01:55:56.469Z,14.87
2017-11-18T01:58:24.097Z,14.60
2017-11-18T02:00:51.776Z,14.60
2017-11-18T02:03:19.392Z,13.87
2017-11-18T02:05:47.011Z,13.17
2017-11-18T02:08:14.750Z,12.93
2017-11-18T02:10:42.431Z,12.40
2017-11-18T02:13:10.048Z,13.67
2017-11-18T02:15:37.732Z,12.67
2017-11-18T02:18:05.409Z,12.50
2017-11-18T02:20:33.110Z,10.33
2017-11-18T02:23:00.858Z,11.03
2017-11-18T02:25:28.484Z,9.53
2017-11-18T02:27:56.151Z,10.80
2017-11-18T02:30:23.964Z,10.90
2017-11-18T02:32:51.585Z,10.10
2017-11-18T02:35:19.221Z,9.57
2017-11-18T02:37:46.972Z,10.43
2017-11-18T02:40:14.649Z,8.20
2017-11-18T02:42:42.281Z,10.63
2017-11-18T02:45:10.014Z,9.33
2017-11-18T02:47:37.761Z,10.27
2017-11-18T02:50:05.442Z,10.90
2017-11-18T02:52:33.164Z,11.33
2017-11-18T02:55:00.804Z,11.53
2017-11-18T02:57:28.444Z,11.10
2017-11-18T02:59:56.205Z,10.73
2017-11-18T03:02:23.814Z,12.73
2017-11-18T03:04:51.432Z,13.20
2017-11-18T03:07:19.125Z,13.43
2017-11-18T03:09:46.796Z,14.07
2017-11-18T03:12:14.477Z,12.23
2017-11-18T03:14:42.210Z,14.70
2017-11-18T03:17:09.832Z,16.83
2017-11-18T03:19:37.505Z,16.90
2017-11-18T03:22:05.164Z,16.87
2017-11-18T03:24:32.779Z,14.50
2017-11-18T03:27:00.401Z,18.60
2017-11-18T03:29:28.130Z,17.57
2017-11-18T03:31:55.819Z,16.97
2017-11-18T03:34:23.440Z,17.20
2017-11-18T03:36:51.165Z,15.87
2017-11-18T03:39:18.785Z,15.07
2017-11-18T03:41:46.399Z,16.13
2017-11-18T03:44:14.180Z,17.50
2017-11-18T03:46:41.804Z,17.33
2017-11-18T03:49:09.428Z,15.73
2017-11-18T03:51:37.081Z,14.57
2017-11-18T03:54:04.740Z,17.80
2017-11-18T03:56:32.368Z,19.10
2017-11-18T03:59:00.047Z,18.57
2017-11-18T04:01:27.784Z,16.70
2017-11-18T04:03:55.408Z,16.73
2017-11-18T04:06:23.096Z,18.60
2017-11-18T04:08:50.801Z,29.53
2017-11-18T04:11:18.485Z,23.90
2017-11-18T04:13:46.212Z,27.90
2017-11-18T04:16:13.906Z,18.67
2017-11-18T04:18:41.552Z,23.00
2017-11-18T04:21:09.236Z,20.30
2017-11-18T04:23:36.854Z,20.27
2017-11-18T04:26:04.537Z,22.30
2017-11-18T04:28:32.228Z,18.57
2017-11-18T04:30:59.857Z,17.40
2017-11-18T04:33:27.550Z,29.57
2017-11-18T04:35:55.246Z,21.37
2017-11-18T04:38:22.929Z,20.00
2017-11-18T04:40:50.548Z,17.20
2017-11-18T04:43:18.280Z,15.40
2017-11-18T04:45:45.901Z,21.90
2017-11-18T04:48:13.517Z,20.37
2017-11-18T04:50:41.180Z,18.60
2017-11-18T04:53:08.862Z,14.30
2017-11-18T04:55:36.494Z,24.97
2017-11-18T04:58:04.233Z,23.07
2017-11-18T05:00:31.919Z,21.30
2017-11-18T05:02:59.592Z,17.37
2017-11-18T05:05:27.321Z,18.23
2017-11-18T05:07:55.013Z,16.00
2017-11-18T05:10:22.701Z,15.40
2017-11-18T05:12:50.382Z,18.33
2017-11-18T05:15:18.009Z,17.07
2017-11-18T05:17:45.689Z,15.37
2017-11-18T05:20:13.381Z,16.63
2017-11-18T05:22:40.996Z,21.90
2017-11-18T05:25:08.697Z,16.60
2017-11-18T05:27:36.442Z,23.70
2017-11-18T05:30:04.064Z,16.67
2017-11-18T05:32:31.693Z,16.40
2017-11-18T05:34:59.380Z,12.70
2017-11-18T05:37:27.038Z,13.37
2017-11-18T05:39:54.665Z,13.53
2017-11-18T05:42:22.414Z,12.63
2017-11-18T05:44:50.037Z,11.60
2017-11-18T05:47:17.648Z,10.93
2017-11-18T05:49:45.321Z,13.37
2017-11-18T05:52:12.941Z,12.37
2017-11-18T05:54:40.552Z,12.60
2017-11-18T05:57:08.231Z,11.63
2017-11-18T05:59:35.853Z,12.90
2017-11-18T06:02:03.568Z,12.97
2017-11-18T06:04:31.237Z,11.50
2017-11-18T06:06:58.868Z,12.17
2017-11-18T06:09:26.560Z,12.70
2017-11-18T06:11:54.233Z,10.67
2017-11-18T06:14:21.849Z,13.77
2017-11-18T06:16:49.537Z,11.30
2017-11-18T06:19:17.212Z,11.47
2017-11-18T06:21:44.824Z,12.47
2017-11-18T06:24:12.445Z,11.97
2017-11-18T06:26:40.168Z,12.87
2017-11-18T06:29:07.791Z,12.60
2017-11-18T06:31:35.401Z,12.20
2017-11-18T06:34:03.114Z,16.10
2017-11-18T06:36:30.736Z,17.43
2017-11-18T06:38:58.368Z,11.40
2017-11-18T06:41:26.126Z,13.67
2017-11-18T06:43:53.805Z,13.63
2017-11-18T06:46:21.502Z,14.93
2017-11-18T06:48:49.235Z,17.37
2017-11-18T06:51:16.866Z,16.00
2017-11-18T06:53:44.524Z,17.00
2017-11-18T06:56:12.250Z,16.40
2017-11-18T06:58:39.906Z,15.30
2017-11-18T07:01:07.536Z,20.00
2017-11-18T07:03:35.269Z,17.73
2017-11-18T07:06:02.889Z,15.23
2017-11-18T07:08:30.505Z,17.10
2017-11-18T07:10:58.226Z,13.53
2017-11-18T07:13:25.856Z,14.27
2017-11-18T07:15:53.484Z,16.97
2017-11-18T07:18:21.213Z,16.87
2017-11-18T07:20:48.885Z,14.47
2017-11-18T07:23:16.504Z,12.20
2017-11-18T07:25:44.164Z,11.97
2017-11-18T07:28:11.780Z,15.13
2017-11-18T07:30:39.452Z,16.50
2017-11-18T07:33:07.149Z,12.73
2017-11-18T07:35:34.774Z,18.73
2017-11-18T07:38:02.397Z,18.13
2017-11-18T07:40:30.073Z,16.47
2017-11-18T07:42:57.757Z,17.10
2017-11-18T07:45:25.389Z,20.10
2017-11-18T07:47:53.112Z,20.30
2017-11-18T07:50:20.739Z,19.60
2017-11-18T07:52:48.422Z,21.13
2017-11-18T07:55:16.153Z,20.90
2017-11-18T07:57:43.777Z,24.47
2017-11-18T08:00:11.461Z,15.87
2017-11-18T08:02:39.129Z,17.40
2017-11-18T08:05:06.792Z,19.93
2017-11-18T08:07:34.461Z,25.07
2017-11-18T08:10:02.168Z,21.67
2017-11-18T08:12:29.794Z,20.60
2017-11-18T08:14:57.421Z,20.57
2017-11-18T08:17:25.096Z,18.00
2017-11-18T08:19:52.709Z,20.50
2017-11-18T08:22:20.381Z,18.97
2017-11-18T08:24:48.045Z,16.90
2017-11-18T08:27:15.741Z,16.87
2017-11-18T08:29:43.357Z,20.50
2017-11-18T08:32:11.044Z,16.70
2017-11-18T08:34:38.717Z,20.40
2017-11-18T08:37:06.393Z,20.20
2017-11-18T08:39:34.113Z,25.00
2017-11-18T08:42:01.745Z,15.90
2017-11-18T08:44:29.365Z,16.80
2017-11-18T08:46:57.133Z,16.97
2017-11-18T08:49:24.764Z,18.00
2017-11-18T08:51:52.466Z,18.00
2017-11-18T08:54:20.132Z,14.70
2017-11-18T08:56:47.744Z,14.03
2017-11-18T08:59:15.377Z,14.17
2017-11-18T09:01:43.055Z,14.50
2017-11-18T09:04:10.675Z,17.70
2017-11-18T09:06:38.369Z,16.87
2017-11-18T09:09:06.033Z,17.30
2017-11-18T09:11:33.713Z,18.73
2017-11-18T09:14:01.332Z,19.60
2017-11-18T09:16:29.058Z,21.33
2017-11-18T09:18:56.673Z,21.43
2017-11-18T09:21:24.348Z,14.50
2017-11-18T09:23:52.017Z,16.30
2017-11-18T09:26:19.698Z,19.10
2017-11-18T09:28:47.316Z,17.50
2017-11-18T09:31:14.977Z,15.37
2017-11-18T09:33:42.597Z,16.30
2017-11-18T09:36:10.288Z,18.00
2017-11-18T09:38:37.965Z,19.33
2017-11-18T09:41:05.645Z,18.53
2017-11-18T09:43:33.320Z,20.10
2017-11-18T09:46:01.050Z,18.20
2017-11-18T09:48:28.671Z,19.03
2017-11-18T09:50:56.297Z,20.40
2017-11-18T09:53:23.957Z,19.17
2017-11-18T09:55:51.577Z,17.93
2017-11-18T09:58:19.214Z,17.07
2017-11-18T10:00:46.900Z,17.87
2017-11-18T10:03:14.527Z,19.30
2017-11-18T10:05:42.169Z,19.53
2017-11-18T10:08:09.857Z,18.80
2017-11-18T10:10:38.314Z,17.70
2017-11-18T10:13:05.992Z,18.90
2017-11-18T10:15:33.675Z,18.73
2017-11-18T10:18:01.304Z,21.70
2017-11-18T10:20:28.920Z,19.80
2017-11-18T10:22:56.593Z,18.47
2017-11-18T10:25:24.220Z,17.87
2017-11-18T10:27:51.848Z,20.47
2017-11-18T10:30:19.569Z,19.70
2017-11-18T10:32:47.198Z,19.80
2017-11-18T10:35:14.851Z,19.10
2017-11-18T10:37:42.593Z,22.20
2017-11-18T10:40:10.215Z,23.23
2017-11-18T10:42:37.901Z,19.70
2017-11-18T10:45:05.567Z,16.93
2017-11-18T10:47:33.187Z,18.20
2017-11-18T10:50:00.814Z,20.33
2017-11-18T10:52:28.491Z,18.07
2017-11-18T10:54:56.136Z,20.73
2017-11-18T10:57:23.838Z,19.60
2017-11-18T10:59:51.516Z,22.03
2017-11-18T11:02:19.212Z,20.40
2017-11-18T11:04:46.899Z,16.50
2017-11-18T11:07:14.583Z,18.57
2017-11-18T11:09:42.281Z,22.00
2017-11-18T11:12:09.917Z,23.70
2017-11-18T11:14:37.605Z,20.20
2017-11-18T11:17:05.255Z,24.20
2017-11-18T11:19:32.876Z,21.77
2017-11-18T11:22:00.608Z,19.20
2017-11-18T11:24:28.355Z,23.00
2017-11-18T11:26:56.049Z,23.00
2017-11-18T11:29:23.777Z,27.47
2017-11-18T11:31:51.425Z,26.90
2017-11-18T11:34:19.062Z,24.93
2017-11-18T11:36:46.793Z,26.77
2017-11-18T11:39:14.441Z,22.93
2017-11-18T11:41:42.122Z,22.93
2017-11-18T11:44:09.789Z,20.50
2017-11-18T11:46:37.428Z,21.13
2017-11-18T11:49:05.113Z,19.23
2017-11-18T11:51:32.797Z,21.33
2017-11-18T11:54:00.428Z,23.83
2017-11-18T11:56:28.163Z,19.50
2017-11-18T11:58:55.905Z,19.07
2017-11-18T12:01:23.577Z,18.70
2017-11-18T12:03:51.262Z,26.30
2017-11-18T12:06:18.949Z,20.87
2017-11-18T12:08:46.629Z,18.90
2017-11-18T12:11:14.319Z,19.67
2017-11-18T12:13:41.997Z,27.60
2017-11-18T12:16:09.623Z,25.47
2017-11-18T12:18:37.241Z,18.27
2017-11-18T12:21:04.908Z,20.23
2017-11-18T12:23:32.580Z,25.83
2017-11-18T12:26:00.188Z,17.17
2017-11-18T12:28:27.849Z,20.03
2017-11-18T12:30:55.466Z,23.83
2017-11-18T12:33:23.080Z,20.23
2017-11-18T12:35:50.849Z,20.87
2017-11-18T12:38:18.516Z,22.00
2017-11-18T12:40:46.161Z,17.63
2017-11-18T12:43:13.868Z,21.33
2017-11-18T12:45:41.505Z,22.03
2017-11-18T12:48:09.129Z,21.90
2017-11-18T12:50:36.870Z,19.10
2017-11-18T12:53:04.545Z,18.10
2017-11-18T12:55:32.229Z,23.70
2017-11-18T12:57:59.880Z,23.00
2017-11-18T13:00:27.501Z,22.67
2017-11-18T13:02:55.177Z,22.80
2017-11-18T13:05:22.863Z,23.53
2017-11-18T13:07:50.492Z,45.20
2017-11-18T13:10:18.104Z,19.70
2017-11-18T13:12:45.772Z,26.20
2017-11-18T13:15:13.501Z,27.03
2017-11-18T13:17:41.160Z,38.40
2017-11-18T13:20:08.825Z,20.73
2017-11-18T13:22:36.506Z,20.40
2017-11-18T13:25:04.125Z,38.17
2017-11-18T13:27:31.913Z,45.00
2017-11-18T13:29:59.568Z,21.17
2017-11-18T13:32:27.200Z,24.20
2017-11-18T13:34:54.882Z,34.40
2017-11-18T13:37:22.505Z,22.63
2017-11-18T13:39:51.060Z,17.67
2017-11-18T13:42:18.739Z,17.87
2017-11-18T13:44:46.352Z,22.47
2017-11-18T13:47:13.963Z,24.97
2017-11-18T13:49:41.636Z,25.17
2017-11-18T13:52:09.253Z,19.80
2017-11-18T13:54:36.931Z,21.93
2017-11-18T13:57:04.620Z,27.13
2017-11-18T13:59:32.270Z,22.83
2017-11-18T14:01:59.889Z,23.33
2017-11-18T14:04:27.637Z,27.17
2017-11-18T14:06:55.264Z,26.47
2017-11-18T14:09:22.880Z,29.53
2017-11-18T14:11:50.545Z,24.07
2017-11-18T14:14:18.190Z,30.43
2017-11-18T14:16:45.889Z,18.57
2017-11-18T14:19:13.579Z,31.57
2017-11-18T14:21:41.214Z,35.90
2017-11-18T14:24:08.833Z,23.27
2017-11-18T14:26:36.515Z,20.43
2017-11-18T14:29:04.147Z,25.50
2017-11-18T14:31:31.761Z,22.87
2017-11-18T14:33:59.479Z,22.43
2017-11-18T14:36:27.152Z,23.50
2017-11-18T14:38:54.769Z,22.97
2017-11-18T14:41:22.456Z,34.63
2017-11-18T14:43:50.147Z,28.77
2017-11-18T14:46:17.888Z,31.40
2017-11-18T14:48:45.557Z,22.70
2017-11-18T14:51:13.233Z,23.90
2017-11-18T14:53:40.907Z,19.27
2017-11-18T14:56:08.709Z,22.30
2017-11-18T14:58:36.392Z,23.40
2017-11-18T15:01:04.229Z,25.43
2017-11-18T15:03:32.032Z,25.23
2017-11-18T15:05:59.718Z,33.43
2017-11-18T15:08:27.411Z,27.83
2017-11-18T15:10:55.168Z,20.67
2017-11-18T15:13:22.841Z,24.00
2017-11-18T15:15:58.125Z,30.53
2017-11-18T15:18:28.253Z,29.80
2017-11-18T15:21:01.594Z,33.20
2017-11-18T15:26:47.737Z,50.17
2017-11-18T15:29:21.083Z,43.07
2017-11-18T15:31:57.430Z,42.07
2017-11-18T15:34:30.696Z,30.10
2017-11-18T15:37:07.069Z,24.20
2017-11-18T15:39:34.799Z,32.07
2017-11-18T15:42:02.526Z,31.17
2017-11-18T15:44:32.239Z,34.90
2017-11-18T15:50:06.477Z,32.53
2017-11-18T15:52:36.574Z,35.07
2017-11-18T15:55:04.262Z,34.20
2017-11-18T15:57:32.025Z,37.97
2017-11-18T15:59:59.733Z,36.37
2017-11-18T16:02:37.421Z,31.60
2017-11-18T16:05:05.994Z,31.73
2017-11-18T16:07:33.676Z,34.63
2017-11-18T16:10:01.403Z,36.90
2017-11-18T16:12:29.063Z,34.30
2017-11-18T16:14:56.703Z,32.90
2017-11-18T16:17:24.409Z,36.07
2017-11-18T16:19:52.056Z,38.57
2017-11-18T16:22:19.744Z,29.77
2017-11-18T16:24:47.878Z,30.40
2017-11-18T16:27:15.552Z,26.40
2017-11-18T16:29:43.233Z,27.20
2017-11-18T16:32:11.217Z,27.03
2017-11-18T16:34:38.837Z,19.90
2017-11-18T16:37:06.516Z,20.77
2017-11-18T16:39:34.238Z,24.60
2017-11-18T16:42:01.923Z,27.90
2017-11-18T16:44:29.771Z,27.40
2017-11-18T16:46:57.535Z,24.30
2017-11-18T16:49:25.222Z,26.50
2017-11-18T16:51:53.017Z,26.50
2017-11-18T16:54:20.812Z,30.73
2017-11-18T16:56:48.510Z,24.67
2017-11-18T16:59:16.231Z,19.53
2017-11-18T17:01:44.105Z,19.80
2017-11-18T17:04:12.260Z,20.40
2017-11-18T17:06:40.038Z,23.60
2017-11-18T17:09:08.711Z,21.90
2017-11-18T17:11:36.645Z,21.00
2017-11-18T17:14:04.368Z,22.50
2017-11-18T17:16:32.118Z,25.40
2017-11-18T17:18:59.801Z,23.87
2017-11-18T17:21:27.439Z,24.80
2017-11-18T17:23:55.120Z,27.20
2017-11-18T17:26:22.756Z,29.13
2017-11-18T17:28:50.392Z,29.27
2017-11-18T17:31:18.193Z,30.30
2017-11-18T17:33:46.025Z,33.37
2017-11-18T17:36:13.824Z,32.83
2017-11-18T17:38:41.680Z,32.07
2017-11-18T17:41:09.408Z,31.77
2017-11-18T17:43:37.054Z,28.87
2017-11-18T17:46:04.790Z,38.23
2017-11-18T17:48:32.458Z,32.53
2017-11-18T17:51:00.089Z,28.33
2017-11-18T17:53:27.828Z,25.40
2017-11-18T17:55:55.592Z,23.30
2017-11-18T17:58:23.246Z,25.70
2017-11-18T18:00:50.942Z,26.70
2017-11-18T18:03:18.643Z,30.30
2017-11-18T18:05:46.349Z,49.07
2017-11-18T18:08:14.092Z,25.37
2017-11-18T18:10:41.721Z,24.30
2017-11-18T18:13:09.429Z,25.13
2017-11-18T18:15:37.149Z,25.40
2017-11-18T18:18:04.768Z,29.00
2017-11-18T18:20:32.393Z,28.60
2017-11-18T18:23:00.128Z,33.07
2017-11-18T18:25:27.748Z,31.30
2017-11-18T18:27:55.437Z,33.50
2017-11-18T18:30:23.202Z,35.43
2017-11-18T18:32:50.828Z,39.87
2017-11-18T18:35:18.650Z,34.27
2017-11-18T18:37:46.320Z,27.90
2017-11-18T18:40:13.942Z,45.93
2017-11-18T18:42:41.564Z,29.93
2017-11-18T18:45:09.265Z,25.97
2017-11-18T18:47:36.884Z,29.87
2017-11-18T18:50:04.579Z,27.60
2017-11-18T18:52:32.249Z,29.03
2017-11-18T18:54:59.888Z,28.00
2017-11-18T18:57:27.571Z,27.20
2017-11-18T18:59:55.309Z,24.40
2017-11-18T19:02:22.933Z,29.50
2017-11-18T19:04:50.577Z,36.97
2017-11-18T19:07:18.243Z,36.57
2017-11-18T19:09:45.946Z,29.23
2017-11-18T19:12:13.560Z,22.17
2017-11-18T19:14:41.285Z,31.47
2017-11-18T19:17:08.925Z,33.37
2017-11-18T19:19:36.570Z,22.97
2017-11-18T19:22:04.312Z,24.30
2017-11-18T19:24:32.001Z,21.77
2017-11-18T19:26:59.623Z,27.57
2017-11-18T19:29:27.288Z,25.73
2017-11-18T19:31:54.909Z,19.17
2017-11-18T19:34:22.603Z,19.60
2017-11-18T19:36:50.281Z,17.60
2017-11-18T19:39:18.252Z,14.00
2017-11-18T19:41:45.863Z,17.70
2017-11-18T19:44:13.577Z,16.23
2017-11-18T19:46:41.180Z,19.27
2017-11-18T19:49:08.803Z,17.67
2017-11-18T19:51:36.539Z,15.23
2017-11-18T19:54:04.173Z,16.07
2017-11-18T19:56:31.850Z,20.13
2017-11-18T19:58:59.564Z,15.53
2017-11-18T20:01:27.196Z,12.83
2017-11-18T20:03:54.885Z,17.40
2017-11-18T20:06:22.578Z,25.43
2017-11-18T20:08:50.302Z,30.73
2017-11-18T20:11:17.925Z,23.17
2017-11-18T20:13:45.599Z,27.27
2017-11-18T20:16:13.293Z,19.97
2017-11-18T20:18:40.924Z,21.90
2017-11-18T20:21:08.603Z,19.50
2017-11-18T20:23:36.242Z,21.97
2017-11-18T20:26:03.868Z,22.27
2017-11-18T20:28:31.610Z,22.83
2017-11-18T20:30:59.224Z,22.77
2017-11-18T20:33:26.889Z,23.70
2017-11-18T20:35:54.553Z,26.03
2017-11-18T20:38:22.171Z,33.73
2017-11-18T20:40:49.857Z,29.97
2017-11-18T20:43:17.524Z,28.73
2017-11-18T20:45:45.200Z,27.90
2017-11-18T20:48:12.827Z,27.27
2017-11-18T20:50:40.492Z,28.63
2017-11-18T20:53:08.168Z,32.20
2017-11-18T20:55:35.786Z,40.87
2017-11-18T20:58:03.477Z,29.50
2017-11-18T21:00:31.166Z,28.27
2017-11-18T21:02:58.782Z,30.03
2017-11-18T21:05:26.525Z,86.83
2017-11-18T21:07:54.129Z,44.20
2017-11-18T21:10:21.813Z,31.97
2017-11-18T21:12:49.552Z,32.23
2017-11-18T21:15:17.224Z,28.13
2017-11-18T21:17:44.836Z,29.10
2017-11-18T21:20:12.524Z,30.03
2017-11-18T21:22:40.144Z,32.37
2017-11-18T21:25:07.766Z,36.37
2017-11-18T21:27:35.438Z,38.53
2017-11-18T21:30:03.069Z,38.87
2017-11-18T21:32:30.750Z,32.60
2017-11-18T21:34:58.456Z,29.10
2017-11-18T21:37:26.158Z,28.13
2017-11-18T21:39:53.791Z,26.17
2017-11-18T21:42:21.476Z,32.47
2017-11-18T21:44:49.113Z,31.13
2017-11-18T21:47:16.731Z,31.20
2017-11-18T21:49:44.380Z,32.47
2017-11-18T21:52:11.997Z,33.37
2017-11-18T21:54:39.678Z,30.10
2017-11-18T21:57:07.363Z,29.30
2017-11-18T21:59:34.977Z,25.77
2017-11-18T22:02:02.604Z,28.67
2017-11-18T22:04:30.333Z,26.93
2017-11-18T22:06:58.002Z,28.40
2017-11-18T22:09:25.620Z,28.83
2017-11-18T22:11:53.295Z,25.90
2017-11-18T22:14:20.914Z,26.87
2017-11-18T22:16:48.520Z,30.53
2017-11-18T22:19:16.189Z,27.90
2017-11-18T22:21:43.817Z,28.00
2017-11-18T22:24:11.513Z,30.07
2017-11-18T22:26:39.173Z,29.63
2017-11-18T22:29:06.796Z,27.17
2017-11-18T22:31:34.473Z,28.77
2017-11-18T22:34:02.188Z,26.60
2017-11-18T22:36:29.813Z,22.23
2017-11-18T22:38:57.486Z,21.20
2017-11-18T22:41:25.170Z,21.77
2017-11-18T22:43:52.784Z,23.00
2017-11-18T22:46:20.395Z,25.03
2017-11-18T22:48:48.058Z,24.07
2017-11-18T22:51:15.687Z,23.80
2017-11-18T22:53:43.355Z,21.97
2017-11-18T22:56:11.012Z,22.70
2017-11-18T22:58:38.636Z,21.97
2017-11-18T23:01:06.312Z,23.53
2017-11-18T23:03:34.001Z,21.17
2017-11-18T23:06:01.624Z,22.10
2017-11-18T23:08:29.298Z,20.63
2017-11-18T23:10:56.971Z,22.07
2017-11-18T23:13:24.581Z,19.47
2017-11-18T23:15:52.191Z,19.30
2017-11-18T23:18:19.908Z,19.17
2017-11-18T23:20:47.528Z,20.57
2017-11-18T23:23:15.150Z,19.13
2017-11-18T23:25:42.817Z,17.60
2017-11-18T23:28:10.432Z,18.30
2017-11-18T23:30:38.106Z,17.83
2017-11-18T23:33:05.796Z,16.40
2017-11-18T23:35:33.393Z,16.77
2017-11-18T23:38:01.004Z,17.33
2017-11-18T23:40:28.740Z,16.50
2017-11-18T23:42:56.344Z,16.90
2017-11-18T23:45:24.005Z,15.50
2017-11-18T23:47:51.669Z,16.13
2017-11-18T23:50:19.341Z,14.80
2017-11-18T23:52:47.001Z,14.30
2017-11-18T23:55:14.664Z,15.57
2017-11-18T23:57:42.276Z,15.27
